createdAt,value
2018-05-24T00:00:19.631Z,18.47
2018-05-24T00:02:47.092Z,17.30
2018-05-24T00:05:14.585Z,16.90
2018-05-24T00:07:42.050Z,18.03
2018-05-24T00:10:09.514Z,18.47
2018-05-24T00:12:36.991Z,18.97
2018-05-24T00:15:04.465Z,22.13
2018-05-24T00:17:32.717Z,22.10
2018-05-24T00:20:00.197Z,19.90
2018-05-24T00:22:27.671Z,18.87
2018-05-24T00:24:55.976Z,18.77
2018-05-24T00:27:23.474Z,19.40
2018-05-24T00:29:50.968Z,20.63
2018-05-24T00:32:18.444Z,21.37
2018-05-24T00:34:46.678Z,20.43
2018-05-24T00:37:14.149Z,20.53
2018-05-24T00:39:41.616Z,20.77
2018-05-24T00:42:09.870Z,20.53
2018-05-24T00:44:37.330Z,19.73
2018-05-24T00:47:04.794Z,20.17
2018-05-24T00:49:32.264Z,20.97
2018-05-24T00:51:59.734Z,19.53
2018-05-24T00:54:27.211Z,17.33
2018-05-24T00:56:54.682Z,17.60
2018-05-24T00:59:22.142Z,19.30
2018-05-24T01:01:49.610Z,17.33
2018-05-24T01:04:17.080Z,21.17
2018-05-24T01:06:46.067Z,20.43
2018-05-24T01:09:13.540Z,19.03
2018-05-24T01:11:40.996Z,19.23
2018-05-24T01:14:08.470Z,18.20
2018-05-24T01:16:35.932Z,23.13
2018-05-24T01:19:03.426Z,25.20
2018-05-24T01:21:31.661Z,28.17
2018-05-24T01:23:59.121Z,27.50
2018-05-24T01:26:26.598Z,31.67
2018-05-24T01:28:54.073Z,27.70
2018-05-24T01:31:21.644Z,27.17
2018-05-24T01:33:49.131Z,24.47
2018-05-24T01:36:17.362Z,22.93
2018-05-24T01:38:44.835Z,23.07
2018-05-24T01:41:12.302Z,20.90
2018-05-24T01:43:39.781Z,18.90
2018-05-24T01:46:07.251Z,23.53
2018-05-24T01:48:34.725Z,22.20
2018-05-24T01:51:02.965Z,22.47
2018-05-24T01:53:30.436Z,22.03
2018-05-24T01:55:57.929Z,22.13
2018-05-24T01:58:26.169Z,24.53
2018-05-24T02:00:53.648Z,27.27
2018-05-24T02:03:21.111Z,26.40
2018-05-24T02:05:48.686Z,26.83
2018-05-24T02:08:16.167Z,27.33
2018-05-24T02:10:44.394Z,28.90
2018-05-24T02:13:11.857Z,27.33
2018-05-24T02:15:39.322Z,29.03
2018-05-24T02:18:06.781Z,30.07
2018-05-24T02:20:34.261Z,29.23
2018-05-24T02:23:02.494Z,29.30
2018-05-24T02:25:30.751Z,36.13
2018-05-24T02:27:58.225Z,35.53
2018-05-24T02:30:25.704Z,36.60
2018-05-24T02:32:53.953Z,38.00
2018-05-24T02:35:21.419Z,30.67
2018-05-24T02:37:48.898Z,29.73
2018-05-24T02:40:16.361Z,34.07
2018-05-24T02:42:43.817Z,32.93
2018-05-24T02:45:11.312Z,34.73
2018-05-24T02:47:38.784Z,35.30
2018-05-24T02:50:06.262Z,41.27
2018-05-24T02:52:33.730Z,39.60
2018-05-24T02:55:01.197Z,39.40
2018-05-24T02:57:28.690Z,47.90
2018-05-24T02:59:56.170Z,46.03
2018-05-24T03:02:23.638Z,40.40
2018-05-24T03:04:51.095Z,37.90
2018-05-24T03:07:18.560Z,39.50
2018-05-24T03:09:46.812Z,41.50
2018-05-24T03:12:14.288Z,38.43
2018-05-24T03:14:41.768Z,40.10
2018-05-24T03:17:09.238Z,38.20
2018-05-24T03:19:37.482Z,42.63
2018-05-24T03:22:04.964Z,51.83
2018-05-24T03:24:32.440Z,44.70
2018-05-24T03:26:59.922Z,47.30
2018-05-24T03:29:28.158Z,46.67
2018-05-24T03:31:55.636Z,44.40
2018-05-24T03:34:23.117Z,39.90
2018-05-24T03:36:50.605Z,41.77
2018-05-24T03:39:18.836Z,40.97
2018-05-24T03:41:46.362Z,39.73
2018-05-24T03:44:13.838Z,41.50
2018-05-24T03:46:41.340Z,40.67
2018-05-24T03:49:08.828Z,49.03
2018-05-24T03:51:37.074Z,51.27
2018-05-24T03:54:04.555Z,44.80
2018-05-24T03:56:32.023Z,52.10
2018-05-24T03:59:32.143Z,46.97
2018-05-24T04:02:23.086Z,55.03
2018-05-24T04:04:51.322Z,49.17
2018-05-24T04:07:19.569Z,49.87
2018-05-24T04:09:47.800Z,58.57
2018-05-24T04:12:16.043Z,49.07
2018-05-24T04:14:43.504Z,46.43
2018-05-24T04:17:10.997Z,45.33
2018-05-24T04:19:39.233Z,49.27
2018-05-24T04:22:06.698Z,42.60
2018-05-24T04:24:34.180Z,41.47
2018-05-24T04:27:01.672Z,38.00
2018-05-24T04:29:29.924Z,37.33
2018-05-24T04:31:57.439Z,40.03
2018-05-24T04:34:24.906Z,41.53
2018-05-24T04:36:52.377Z,38.77
2018-05-24T04:39:19.899Z,35.40
2018-05-24T04:41:47.410Z,38.90
2018-05-24T04:44:14.877Z,35.80
2018-05-24T04:46:42.345Z,32.13
2018-05-24T04:49:10.633Z,30.53
2018-05-24T04:51:38.169Z,32.03
2018-05-24T04:54:05.642Z,29.07
2018-05-24T04:56:33.200Z,29.20
2018-05-24T04:59:00.658Z,26.63
2018-05-24T05:01:28.124Z,25.83
2018-05-24T05:03:55.589Z,23.20
2018-05-24T05:06:23.096Z,24.13
2018-05-24T05:08:50.554Z,25.07
2018-05-24T05:11:18.026Z,28.73
2018-05-24T05:13:45.490Z,22.97
2018-05-24T05:16:12.957Z,23.03
2018-05-24T05:18:40.446Z,22.80
2018-05-24T05:21:08.690Z,26.53
2018-05-24T05:23:36.156Z,22.03
2018-05-24T05:26:03.686Z,23.33
2018-05-24T05:28:31.182Z,22.50
2018-05-24T05:30:58.682Z,22.60
2018-05-24T05:33:26.154Z,22.83
2018-05-24T05:35:54.422Z,21.97
2018-05-24T05:38:22.003Z,22.60
2018-05-24T05:40:50.130Z,24.67
2018-05-24T05:43:17.620Z,22.33
2018-05-24T05:45:45.081Z,20.53
2018-05-24T05:48:12.553Z,24.13
2018-05-24T05:50:40.025Z,20.60
2018-05-24T05:53:07.493Z,20.83
2018-05-24T05:55:35.768Z,21.73
2018-05-24T05:58:03.233Z,21.60
2018-05-24T06:00:31.466Z,22.20
2018-05-24T06:02:58.926Z,22.17
2018-05-24T06:05:26.395Z,19.47
2018-05-24T06:07:53.878Z,21.73
2018-05-24T06:10:21.356Z,19.67
2018-05-24T06:12:48.826Z,18.63
2018-05-24T06:15:16.300Z,19.10
2018-05-24T06:17:44.539Z,19.60
2018-05-24T06:20:12.023Z,18.00
2018-05-24T06:22:39.496Z,19.53
2018-05-24T06:25:06.967Z,19.83
2018-05-24T06:27:34.435Z,19.60
2018-05-24T06:30:02.678Z,19.80
2018-05-24T06:32:30.170Z,20.30
2018-05-24T06:34:57.653Z,18.17
2018-05-24T06:37:25.888Z,17.27
2018-05-24T06:39:53.353Z,16.37
2018-05-24T06:42:20.820Z,16.33
2018-05-24T06:44:49.074Z,16.43
2018-05-24T06:47:16.539Z,16.90
2018-05-24T06:49:44.010Z,17.57
2018-05-24T06:52:11.494Z,16.03
2018-05-24T06:54:38.959Z,17.27
2018-05-24T06:57:06.456Z,17.37
2018-05-24T06:59:34.698Z,17.90
2018-05-24T07:02:02.180Z,18.37
2018-05-24T07:04:29.660Z,17.53
2018-05-24T07:06:57.136Z,17.37
2018-05-24T07:09:25.395Z,17.90
2018-05-24T07:11:52.856Z,17.73
2018-05-24T07:14:20.324Z,18.40
2018-05-24T07:16:47.792Z,18.10
2018-05-24T07:19:15.264Z,17.00
2018-05-24T07:21:43.519Z,18.03
2018-05-24T07:24:10.984Z,18.00
2018-05-24T07:26:38.445Z,18.10
2018-05-24T07:29:05.913Z,18.27
2018-05-24T07:31:33.400Z,16.67
2018-05-24T07:34:01.643Z,16.87
2018-05-24T07:36:29.115Z,17.73
2018-05-24T07:38:57.345Z,19.67
2018-05-24T07:41:24.828Z,17.70
2018-05-24T07:43:52.304Z,18.40
2018-05-24T07:46:19.807Z,17.57
2018-05-24T07:48:47.280Z,17.63
2018-05-24T07:51:15.531Z,18.00
2018-05-24T07:53:43.002Z,17.63
2018-05-24T07:56:10.473Z,18.10
2018-05-24T07:58:37.988Z,16.73
2018-05-24T08:01:05.443Z,17.63
2018-05-24T08:03:32.916Z,16.60
2018-05-24T08:06:00.399Z,14.83
2018-05-24T08:08:27.869Z,15.00
2018-05-24T08:10:55.358Z,14.67
2018-05-24T08:13:22.825Z,16.13
2018-05-24T08:15:50.295Z,15.90
2018-05-24T08:18:17.777Z,15.13
2018-05-24T08:20:46.020Z,17.00
2018-05-24T08:23:13.496Z,14.00
2018-05-24T08:25:40.967Z,14.30
2018-05-24T08:28:08.435Z,13.90
2018-05-24T08:30:35.905Z,16.27
2018-05-24T08:33:04.149Z,13.03
2018-05-24T08:35:31.626Z,13.70
2018-05-24T08:37:59.097Z,15.27
2018-05-24T08:40:26.654Z,13.50
2018-05-24T08:42:54.123Z,13.27
2018-05-24T08:45:21.614Z,12.23
2018-05-24T08:47:49.863Z,71.50
2018-05-24T08:50:17.339Z,24.47
2018-05-24T08:52:44.815Z,38.67
2018-05-24T08:55:13.125Z,25.10
2018-05-24T08:57:40.624Z,16.93
2018-05-24T09:00:08.110Z,13.03
2018-05-24T09:02:35.569Z,14.10
2018-05-24T09:05:03.053Z,13.93
2018-05-24T09:07:31.291Z,12.60
2018-05-24T09:09:58.785Z,14.37
2018-05-24T09:12:26.279Z,13.43
2018-05-24T09:14:53.762Z,12.63
2018-05-24T09:17:21.242Z,13.53
2018-05-24T09:19:48.714Z,13.03
2018-05-24T09:22:16.194Z,12.80
2018-05-24T09:24:43.671Z,13.23
2018-05-24T09:27:11.135Z,12.63
2018-05-24T09:29:38.639Z,15.67
2018-05-24T09:32:06.116Z,14.67
2018-05-24T09:34:33.603Z,15.20
2018-05-24T09:37:01.090Z,13.27
2018-05-24T09:39:28.561Z,18.23
2018-05-24T09:41:56.801Z,21.17
2018-05-24T09:44:24.296Z,13.80
2018-05-24T09:46:51.779Z,12.50
2018-05-24T09:49:20.042Z,14.07
2018-05-24T09:51:47.506Z,12.40
2018-05-24T09:54:14.985Z,12.17
2018-05-24T09:56:43.214Z,11.77
2018-05-24T09:59:10.683Z,10.47
2018-05-24T10:01:38.169Z,11.00
2018-05-24T10:04:05.635Z,9.87
2018-05-24T10:06:33.108Z,10.10
2018-05-24T10:09:00.577Z,9.80
2018-05-24T10:11:28.041Z,9.10
2018-05-24T10:13:55.523Z,9.20
2018-05-24T10:16:23.796Z,8.17
2018-05-24T10:18:51.250Z,9.10
2018-05-24T10:21:18.716Z,9.18
2018-05-24T10:23:46.949Z,8.97
2018-05-24T10:26:14.424Z,8.00
2018-05-24T10:28:41.892Z,6.60
2018-05-24T10:31:09.353Z,6.43
2018-05-24T10:33:36.816Z,6.77
2018-05-24T10:36:05.428Z,7.23
2018-05-24T10:38:32.963Z,6.93
2018-05-24T10:41:00.405Z,7.10
2018-05-24T10:43:27.869Z,7.87
2018-05-24T10:45:55.343Z,8.40
2018-05-24T10:48:22.823Z,8.30
2018-05-24T10:50:50.284Z,8.20
2018-05-24T10:53:17.814Z,7.67
2018-05-24T10:55:45.357Z,8.60
2018-05-24T10:58:13.636Z,8.43
2018-05-24T11:00:41.102Z,7.70
2018-05-24T11:03:08.707Z,9.37
2018-05-24T11:05:36.058Z,8.13
2018-05-24T11:08:03.526Z,8.10
2018-05-24T11:10:31.004Z,8.00
2018-05-24T11:12:58.467Z,8.50
2018-05-24T11:15:25.971Z,7.40
2018-05-24T11:17:53.430Z,7.40
2018-05-24T11:20:20.893Z,7.03
2018-05-24T11:22:48.353Z,6.60
2018-05-24T11:25:15.856Z,29.87
2018-05-24T11:27:43.336Z,43.47
2018-05-24T11:30:10.807Z,10.37
2018-05-24T11:32:38.270Z,7.67
2018-05-24T11:35:05.738Z,7.07
2018-05-24T11:37:33.211Z,6.40
2018-05-24T11:40:01.472Z,7.50
2018-05-24T11:42:28.947Z,7.00
2018-05-24T11:44:56.415Z,7.17
2018-05-24T11:47:23.873Z,7.03
2018-05-24T11:49:51.347Z,6.53
2018-05-24T11:52:18.846Z,6.77
2018-05-24T11:54:46.317Z,6.60
2018-05-24T11:57:13.789Z,6.53
2018-05-24T11:59:42.021Z,6.53
2018-05-24T12:02:09.495Z,6.97
2018-05-24T12:04:36.981Z,7.43
2018-05-24T12:07:04.544Z,7.40
2018-05-24T12:09:32.707Z,10.40
2018-05-24T12:12:00.170Z,7.60
2018-05-24T12:14:27.649Z,7.90
2018-05-24T12:16:55.140Z,7.97
2018-05-24T12:19:23.365Z,7.50
2018-05-24T12:21:50.835Z,7.10
2018-05-24T12:24:18.313Z,7.13
2018-05-24T12:26:45.785Z,9.23
2018-05-24T12:29:13.433Z,7.90
2018-05-24T12:31:40.769Z,8.43
2018-05-24T12:34:08.250Z,8.27
2018-05-24T12:36:35.717Z,8.67
2018-05-24T12:39:03.947Z,8.40
2018-05-24T12:41:32.219Z,7.23
2018-05-24T12:43:59.696Z,7.17
2018-05-24T12:46:28.746Z,7.43
2018-05-24T12:48:56.266Z,7.07
2018-05-24T12:51:23.697Z,6.73
2018-05-24T12:53:51.177Z,7.03
2018-05-24T12:56:19.407Z,7.00
2018-05-24T12:58:46.879Z,8.90
2018-05-24T13:01:14.356Z,7.17
2018-05-24T13:03:41.835Z,7.03
2018-05-24T13:06:09.325Z,36.53
2018-05-24T13:08:36.812Z,45.27
2018-05-24T13:11:04.274Z,92.10
2018-05-24T13:13:31.748Z,26.53
2018-05-24T13:15:59.232Z,12.70
2018-05-24T13:18:26.719Z,9.63
2018-05-24T13:20:54.188Z,6.37
2018-05-24T13:23:21.663Z,6.67
2018-05-24T13:25:49.901Z,7.10
2018-05-24T13:28:17.362Z,6.97
2018-05-24T13:30:44.836Z,6.87
2018-05-24T13:33:12.306Z,6.40
2018-05-24T13:35:43.369Z,6.60
2018-05-24T13:38:10.852Z,7.87
2018-05-24T13:40:39.088Z,7.63
2018-05-24T13:43:06.589Z,14.50
2018-05-24T13:45:34.836Z,8.83
2018-05-24T13:48:03.074Z,19.57
2018-05-24T13:50:30.526Z,7.47
2018-05-24T13:52:58.764Z,7.50
2018-05-24T13:55:26.988Z,7.87
2018-05-24T13:57:55.230Z,7.80
2018-05-24T14:00:22.692Z,7.10
2018-05-24T14:02:50.156Z,7.23
2018-05-24T14:05:17.626Z,7.80
2018-05-24T14:07:45.111Z,7.97
2018-05-24T14:10:12.576Z,8.83
2018-05-24T14:12:40.138Z,8.50
2018-05-24T14:15:07.814Z,7.73
2018-05-24T14:17:36.042Z,10.07
2018-05-24T14:20:03.536Z,9.00
2018-05-24T14:22:31.000Z,8.70
2018-05-24T14:24:58.465Z,8.93
2018-05-24T14:27:25.934Z,8.70
2018-05-24T14:29:53.404Z,9.90
2018-05-24T14:32:20.890Z,8.70
2018-05-24T14:34:48.364Z,14.03
2018-05-24T14:37:15.834Z,11.93
2018-05-24T14:39:43.305Z,9.33
2018-05-24T14:42:10.860Z,8.57
2018-05-24T14:44:38.332Z,9.50
2018-05-24T14:47:05.808Z,8.17
2018-05-24T14:49:33.266Z,5.70
2018-05-24T14:52:00.744Z,4.30
2018-05-24T14:54:28.196Z,3.97
2018-05-24T14:56:55.684Z,5.30
2018-05-24T14:59:23.162Z,4.57
2018-05-24T15:01:50.634Z,3.83
2018-05-24T15:04:18.875Z,3.17
2018-05-24T15:06:46.336Z,2.60
2018-05-24T15:09:13.838Z,2.77
2018-05-24T15:11:41.301Z,2.90
2018-05-24T15:14:08.781Z,5.37
2018-05-24T15:16:37.014Z,3.23
2018-05-24T15:19:04.472Z,2.37
2018-05-24T15:21:31.932Z,2.50
2018-05-24T15:23:59.413Z,2.17
2018-05-24T15:26:26.872Z,2.70
2018-05-24T15:28:54.342Z,2.50
2018-05-24T15:31:21.892Z,4.73
2018-05-24T15:33:49.374Z,2.50
2018-05-24T15:36:16.846Z,2.30
2018-05-24T15:38:44.323Z,2.97
2018-05-24T15:41:11.796Z,3.50
2018-05-24T15:43:40.053Z,3.80
2018-05-24T15:46:07.513Z,3.97
2018-05-24T15:48:34.975Z,4.27
2018-05-24T15:51:02.476Z,4.43
2018-05-24T15:53:30.706Z,3.77
2018-05-24T15:55:58.948Z,2.77
2018-05-24T15:58:26.439Z,4.87
2018-05-24T16:00:53.910Z,2.80
2018-05-24T16:03:21.535Z,3.53
2018-05-24T16:05:48.970Z,5.23
2018-05-24T16:08:16.438Z,5.20
2018-05-24T16:10:43.918Z,6.57
2018-05-24T16:13:12.158Z,5.13
2018-05-24T16:15:39.645Z,5.70
2018-05-24T16:18:07.104Z,6.53
2018-05-24T16:20:34.593Z,8.90
2018-05-24T16:23:02.822Z,8.60
2018-05-24T16:25:30.306Z,8.50
2018-05-24T16:27:57.789Z,9.43
2018-05-24T16:30:25.268Z,10.30
2018-05-24T16:32:53.505Z,9.93
2018-05-24T16:35:20.975Z,11.10
2018-05-24T16:37:48.447Z,13.73
2018-05-24T16:40:15.951Z,14.70
2018-05-24T16:42:44.227Z,14.43
2018-05-24T16:45:12.463Z,15.73
2018-05-24T16:47:39.933Z,17.10
2018-05-24T16:50:07.424Z,15.73
2018-05-24T16:52:34.907Z,17.47
2018-05-24T16:55:03.134Z,17.80
2018-05-24T16:57:30.684Z,21.37
2018-05-24T16:59:58.157Z,20.20
2018-05-24T17:02:26.409Z,20.50
2018-05-24T17:04:53.906Z,22.93
2018-05-24T17:07:21.389Z,23.53
2018-05-24T17:09:49.655Z,24.03
2018-05-24T17:12:17.144Z,24.73
2018-05-24T17:14:44.633Z,27.07
2018-05-24T17:17:12.893Z,24.60
2018-05-24T17:19:40.360Z,24.43
2018-05-24T17:22:07.840Z,25.70
2018-05-24T17:24:35.327Z,23.40
2018-05-24T17:27:02.815Z,25.17
2018-05-24T17:29:30.307Z,25.40
2018-05-24T17:31:57.777Z,28.00
2018-05-24T17:34:25.243Z,27.07
2018-05-24T17:36:52.719Z,27.87
2018-05-24T17:39:20.972Z,28.50
2018-05-24T17:41:48.462Z,26.43
2018-05-24T17:44:16.767Z,27.27
2018-05-24T17:46:44.240Z,27.07
2018-05-24T17:49:11.706Z,24.47
2018-05-24T17:51:39.184Z,24.60
2018-05-24T17:54:06.687Z,23.83
2018-05-24T17:56:34.156Z,21.83
2018-05-24T17:59:01.638Z,20.03
2018-05-24T18:01:29.109Z,20.40
2018-05-24T18:03:56.601Z,20.47
2018-05-24T18:06:24.085Z,19.73
2018-05-24T18:08:51.585Z,17.80
2018-05-24T18:11:19.823Z,21.73
2018-05-24T18:13:47.307Z,23.10
2018-05-24T18:16:14.799Z,25.27
2018-05-24T18:18:43.067Z,60.37
2018-05-24T18:21:10.577Z,33.13
2018-05-24T18:23:38.815Z,28.70
2018-05-24T18:26:06.293Z,28.20
2018-05-24T18:28:34.553Z,25.53
2018-05-24T18:31:02.067Z,22.63
2018-05-24T18:33:29.556Z,24.80
2018-05-24T18:35:57.078Z,23.57
2018-05-24T18:38:25.325Z,23.60
2018-05-24T18:40:52.811Z,24.60
2018-05-24T18:43:21.089Z,26.73
2018-05-24T18:45:49.364Z,23.57
2018-05-24T18:48:16.867Z,22.40
2018-05-24T18:50:44.364Z,22.87
2018-05-24T18:53:11.839Z,21.90
2018-05-24T18:55:39.345Z,20.33
2018-05-24T18:58:06.837Z,18.37
2018-05-24T19:00:34.330Z,16.37
2018-05-24T19:03:01.806Z,17.07
2018-05-24T19:05:29.290Z,16.47
2018-05-24T19:07:57.570Z,16.90
2018-05-24T19:10:26.331Z,17.10
2018-05-24T19:12:53.822Z,16.27
2018-05-24T19:15:22.075Z,17.47
2018-05-24T19:17:49.574Z,17.90
2018-05-24T19:20:17.862Z,18.83
2018-05-24T19:22:45.354Z,18.63
2018-05-24T19:25:12.852Z,17.80
2018-05-24T19:27:40.347Z,16.57
2018-05-24T19:30:08.658Z,16.40
2018-05-24T19:32:36.156Z,17.40
2018-05-24T19:35:03.640Z,17.70
2018-05-24T19:37:31.121Z,24.50
2018-05-24T19:39:59.368Z,24.20
2018-05-24T19:42:26.868Z,24.13
2018-05-24T19:44:55.158Z,61.73
2018-05-24T19:47:22.650Z,22.30
2018-05-24T19:49:50.158Z,19.10
2018-05-24T19:52:17.678Z,22.40
2018-05-24T19:54:45.181Z,22.67
2018-05-24T19:57:12.688Z,21.70
2018-05-24T19:59:40.175Z,21.67
2018-05-24T20:02:07.668Z,17.10
2018-05-24T20:04:35.170Z,20.37
2018-05-24T20:07:03.407Z,22.43
2018-05-24T20:09:30.905Z,24.17
2018-05-24T20:11:59.220Z,24.90
2018-05-24T20:14:26.717Z,25.97
2018-05-24T20:16:54.203Z,24.43
2018-05-24T20:19:21.694Z,27.30
2018-05-24T20:21:49.970Z,26.73
2018-05-24T20:24:18.203Z,27.13
2018-05-24T20:26:45.678Z,27.10
2018-05-24T20:29:13.159Z,31.77
2018-05-24T20:31:40.677Z,81.63
2018-05-24T20:34:08.207Z,92.77
2018-05-24T20:36:36.440Z,30.70
2018-05-24T20:39:03.943Z,28.87
2018-05-24T20:41:31.443Z,28.40
2018-05-24T20:43:58.915Z,25.77
2018-05-24T20:46:26.423Z,25.47
2018-05-24T20:48:53.888Z,27.03
2018-05-24T20:51:21.364Z,27.67
2018-05-24T20:53:49.601Z,28.07
2018-05-24T20:56:17.086Z,29.20
2018-05-24T20:58:44.581Z,32.77
2018-05-24T21:01:12.822Z,37.87
2018-05-24T21:03:41.063Z,36.73
2018-05-24T21:06:08.542Z,36.23
2018-05-24T21:08:36.017Z,43.20
2018-05-24T21:11:03.527Z,59.33
2018-05-24T21:13:31.774Z,43.27
2018-05-24T21:15:59.245Z,41.53
2018-05-24T21:18:27.514Z,41.17
2018-05-24T21:20:55.769Z,46.37
2018-05-24T21:23:23.273Z,90.30
2018-05-24T21:25:50.769Z,121.77
2018-05-24T21:28:19.007Z,53.43
2018-05-24T21:30:46.477Z,57.57
2018-05-24T21:33:13.951Z,69.00
2018-05-24T21:35:41.433Z,80.17
2018-05-24T21:38:08.909Z,39.97
2018-05-24T21:40:37.143Z,49.33
2018-05-24T21:43:04.631Z,76.37
2018-05-24T21:45:32.115Z,54.07
2018-05-24T21:48:00.389Z,49.73
2018-05-24T21:50:27.858Z,208.13
2018-05-24T21:52:56.093Z,99.60
2018-05-24T21:55:23.595Z,67.97
2018-05-24T21:57:51.090Z,55.80
2018-05-24T22:00:19.319Z,59.73
2018-05-24T22:02:46.799Z,182.53
2018-05-24T22:05:14.277Z,94.77
2018-05-24T22:07:42.521Z,151.03
2018-05-24T22:10:10.001Z,246.17
2018-05-24T22:12:37.489Z,199.77
2018-05-24T22:15:05.734Z,223.40
2018-05-24T22:17:33.242Z,247.50
2018-05-24T22:20:01.472Z,80.30
2018-05-24T22:22:29.708Z,128.60
2018-05-24T22:24:57.202Z,176.40
2018-05-24T22:27:24.669Z,118.70
2018-05-24T22:29:52.163Z,150.03
2018-05-24T22:32:19.629Z,57.73
2018-05-24T22:34:47.113Z,257.77
2018-05-24T22:37:15.366Z,175.20
2018-05-24T22:39:42.868Z,199.07
2018-05-24T22:42:11.106Z,172.10
2018-05-24T22:44:38.581Z,149.03
2018-05-24T22:47:06.050Z,58.83
2018-05-24T22:49:33.542Z,72.07
2018-05-24T22:52:01.808Z,72.20
2018-05-24T22:54:29.276Z,50.70
2018-05-24T22:56:57.518Z,103.43
2018-05-24T22:59:25.039Z,131.40
2018-05-24T23:01:52.520Z,147.40
2018-05-24T23:04:20.028Z,130.50
2018-05-24T23:06:47.501Z,81.43
2018-05-24T23:09:14.986Z,87.03
2018-05-24T23:11:43.234Z,62.67
2018-05-24T23:14:10.721Z,64.00
2018-05-24T23:16:38.192Z,60.50
2018-05-24T23:19:06.446Z,142.77
2018-05-24T23:21:33.929Z,108.77
2018-05-24T23:24:01.405Z,189.70
2018-05-24T23:26:29.660Z,95.63
2018-05-24T23:28:57.122Z,90.00
2018-05-24T23:31:24.614Z,158.73
2018-05-24T23:33:52.856Z,180.00
2018-05-24T23:36:20.334Z,419.77
2018-05-24T23:38:47.828Z,214.27
2018-05-24T23:41:16.056Z,197.10
2018-05-24T23:43:43.530Z,114.87
2018-05-24T23:46:11.780Z,186.73
2018-05-24T23:48:39.254Z,164.03
2018-05-24T23:51:06.741Z,104.07
2018-05-24T23:53:34.210Z,290.00
2018-05-24T23:56:01.684Z,221.63
2018-05-24T23:58:29.167Z,262.80
